Time;durP1;ratioP1;P1;durP2;ratioP2;P2;SDS_P1;SDS_P2;PMS_P1;PMS_P2;Temp;Humidity;BMP_temperature;BMP_pressure;BME280_temperature;BME280_humidity;BME280_pressure;Samples;Min_cycle;Max_cycle;Signal;HPM_P1;HPM_P2
2023/12/10 00:00:28;;;;;;;19.77;5.53;;;7.60;99.90;;;;;;5074488;28;20048;-66
2023/12/10 00:02:55;;;;;;;19.52;5.43;;;7.50;99.90;;;;;;5074549;28;20063;-66
2023/12/10 00:05:22;;;;;;;23.73;6.32;;;7.60;99.90;;;;;;5072666;28;20056;-66
2023/12/10 00:07:49;;;;;;;20.40;5.40;;;7.50;99.90;;;;;;5074368;28;20049;-66
2023/12/10 00:10:17;;;;;;;32.00;5.75;;;7.60;99.90;;;;;;5072890;28;20100;-66
2023/12/10 00:12:44;;;;;;;19.85;4.25;;;7.60;99.90;;;;;;5070787;28;20045;-66
2023/12/10 00:15:11;;;;;;;19.65;5.72;;;7.60;99.90;;;;;;5073926;28;20519;-66
2023/12/10 00:17:39;;;;;;;28.13;4.82;;;7.60;99.90;;;;;;5073915;28;20371;-67
2023/12/10 00:20:07;;;;;;;21.73;5.03;;;7.60;99.90;;;;;;5074196;28;20080;-66
2023/12/10 00:22:34;;;;;;;18.60;5.82;;;7.70;99.90;;;;;;5072827;28;20044;-66
2023/12/10 00:25:01;;;;;;;25.35;6.40;;;7.70;99.90;;;;;;5072329;28;20467;-66
2023/12/10 00:27:30;;;;;;;43.17;5.95;;;7.70;99.90;;;;;;5072954;28;20131;-66
2023/12/10 00:29:57;;;;;;;28.45;5.43;;;7.70;99.90;;;;;;5072839;28;20488;-66
2023/12/10 00:32:24;;;;;;;22.45;6.63;;;7.80;99.90;;;;;;5072434;28;20074;-66
2023/12/10 00:34:51;;;;;;;30.02;7.03;;;7.70;99.90;;;;;;5074113;28;20052;-67
2023/12/10 00:37:18;;;;;;;19.35;5.45;;;7.70;99.90;;;;;;5074003;28;20062;-66
2023/12/10 00:39:45;;;;;;;19.77;5.40;;;7.70;99.90;;;;;;5072234;28;20041;-67
2023/12/10 00:42:12;;;;;;;22.92;4.85;;;7.70;99.90;;;;;;5072302;28;20380;-67
2023/12/10 00:44:41;;;;;;;22.92;5.32;;;7.70;99.90;;;;;;5072456;28;20128;-67
2023/12/10 00:47:08;;;;;;;28.35;6.05;;;7.70;99.90;;;;;;5071740;28;20507;-67
2023/12/10 00:49:35;;;;;;;20.48;5.75;;;7.70;99.90;;;;;;5073746;28;20119;-67
2023/12/10 00:52:02;;;;;;;30.00;6.25;;;7.80;99.90;;;;;;5072495;28;20047;-67
2023/12/10 00:54:32;;;;;;;21.90;5.22;;;7.80;99.90;;;;;;5072123;28;20045;-67
2023/12/10 00:57:00;;;;;;;19.60;5.15;;;7.80;99.90;;;;;;5073972;28;20048;-67
2023/12/10 00:59:27;;;;;;;26.77;5.85;;;7.70;99.90;;;;;;5072012;28;20049;-67
2023/12/10 01:01:55;;;;;;;17.85;5.57;;;7.70;99.90;;;;;;5072207;28;20057;-67
2023/12/10 01:04:23;;;;;;;18.23;4.43;;;7.60;99.90;;;;;;5073551;28;20037;-66
2023/12/10 01:06:51;;;;;;;22.67;4.65;;;7.60;99.90;;;;;;5071366;28;20484;-67
2023/12/10 01:09:18;;;;;;;20.77;4.40;;;7.60;99.90;;;;;;5072270;28;20098;-67
2023/12/10 01:11:45;;;;;;;23.55;4.93;;;7.60;99.90;;;;;;5071240;28;20048;-67
2023/12/10 01:14:12;;;;;;;14.57;4.80;;;7.50;99.90;;;;;;5071605;28;20048;-67
2023/12/10 01:16:40;;;;;;;25.10;5.40;;;7.50;99.90;;;;;;5072209;28;20408;-67
2023/12/10 01:19:08;;;;;;;20.52;4.45;;;7.40;99.90;;;;;;5073258;28;20454;-67
2023/12/10 01:21:35;;;;;;;19.65;4.30;;;7.50;99.90;;;;;;5071416;28;20051;-67
2023/12/10 01:24:04;;;;;;;21.33;5.80;;;7.40;99.90;;;;;;5070892;28;20051;-66
2023/12/10 01:26:31;;;;;;;18.42;4.47;;;7.40;99.90;;;;;;5070752;28;20064;-67
2023/12/10 01:28:58;;;;;;;22.75;5.30;;;7.50;99.90;;;;;;5071318;28;20441;-68
2023/12/10 01:31:26;;;;;;;18.15;4.07;;;7.40;99.90;;;;;;5071676;28;20049;-67
2023/12/10 01:33:53;;;;;;;22.35;4.65;;;7.40;99.90;;;;;;5072828;28;20048;-67
2023/12/10 01:36:24;;;;;;;17.80;4.50;;;7.40;99.90;;;;;;5071001;28;20041;-67
2023/12/10 01:38:52;;;;;;;14.40;4.35;;;7.40;99.90;;;;;;5103070;28;20040;-67
2023/12/10 01:41:19;;;;;;;22.27;4.55;;;7.30;99.90;;;;;;5071262;28;20048;-67
2023/12/10 01:43:46;;;;;;;23.92;5.80;;;7.40;99.90;;;;;;5072148;28;20051;-67
2023/12/10 01:46:14;;;;;;;20.08;5.55;;;7.30;99.90;;;;;;5071261;28;20063;-67
2023/12/10 01:48:42;;;;;;;16.13;5.00;;;7.30;99.90;;;;;;5071244;28;20080;-68
2023/12/10 01:51:10;;;;;;;21.75;5.03;;;7.40;99.90;;;;;;5071584;28;20056;-67
2023/12/10 01:53:40;;;;;;;24.50;5.68;;;7.30;99.90;;;;;;5071351;28;20051;-67
2023/12/10 01:56:09;;;;;;;18.23;5.30;;;7.30;99.90;;;;;;5070659;28;20055;-67
2023/12/10 01:58:38;;;;;;;19.77;4.25;;;7.30;99.90;;;;;;5071356;28;20485;-67
2023/12/10 02:01:07;;;;;;;18.08;5.43;;;7.30;99.90;;;;;;5071351;28;20447;-68
2023/12/10 02:03:34;;;;;;;23.35;6.15;;;7.30;99.90;;;;;;5070490;28;20385;-67
2023/12/10 02:06:02;;;;;;;19.27;4.85;;;7.30;99.90;;;;;;5071373;28;20155;-67
2023/12/10 02:08:29;;;;;;;24.77;6.20;;;7.30;99.90;;;;;;5072384;28;20090;-67
2023/12/10 02:10:59;;;;;;;20.58;4.93;;;7.30;99.90;;;;;;5072028;28;20040;-67
2023/12/10 02:13:27;;;;;;;23.67;5.30;;;7.30;99.90;;;;;;5072051;28;20500;-68
2023/12/10 02:15:54;;;;;;;26.73;6.00;;;7.30;99.90;;;;;;5071182;28;20453;-67
2023/12/10 02:18:21;;;;;;;19.90;4.15;;;7.30;99.90;;;;;;5070628;28;20052;-68
2023/12/10 02:20:49;;;;;;;23.90;5.07;;;7.30;99.90;;;;;;5070956;28;20048;-67
2023/12/10 02:23:36;;;;;;;20.50;4.55;;;7.30;99.90;;;;;;5071046;28;20059;-68
2023/12/10 02:26:05;;;;;;;23.30;4.60;;;7.30;99.90;;;;;;5069115;28;20044;-67
2023/12/10 02:28:33;;;;;;;20.17;5.18;;;7.30;99.90;;;;;;5068884;28;20049;-67
2023/12/10 02:31:00;;;;;;;21.27;5.32;;;7.30;99.90;;;;;;5070399;28;20062;-67
2023/12/10 02:33:27;;;;;;;22.88;5.10;;;7.30;99.90;;;;;;5070930;28;20044;-67
2023/12/10 02:35:55;;;;;;;17.80;5.35;;;7.40;99.90;;;;;;5071695;28;20048;-67
2023/12/10 02:38:22;;;;;;;14.25;4.40;;;7.30;99.90;;;;;;5070158;28;20091;-67
2023/12/10 02:40:49;;;;;;;24.10;6.57;;;7.40;99.90;;;;;;5069175;28;20059;-67
2023/12/10 02:43:19;;;;;;;25.63;5.10;;;7.30;99.90;;;;;;5070474;28;20077;-67
2023/12/10 02:45:46;;;;;;;21.10;5.00;;;7.30;99.90;;;;;;5070321;28;20460;-67
2023/12/10 02:48:13;;;;;;;14.88;4.50;;;7.30;99.90;;;;;;5070779;28;20060;-67
2023/12/10 02:50:40;;;;;;;18.42;4.85;;;7.40;99.90;;;;;;5070433;28;20048;-67
2023/12/10 02:53:07;;;;;;;19.85;4.03;;;7.40;99.90;;;;;;5070263;28;20059;-67
2023/12/10 02:55:34;;;;;;;21.63;4.63;;;7.30;99.90;;;;;;5070533;28;20051;-66
2023/12/10 02:58:01;;;;;;;27.90;4.80;;;7.40;99.90;;;;;;5071966;28;20051;-66
2023/12/10 03:00:30;;;;;;;24.35;4.38;;;7.30;99.90;;;;;;5071272;28;20052;-67
2023/12/10 03:02:57;;;;;;;14.98;3.80;;;7.30;99.90;;;;;;5070505;28;20461;-67
2023/12/10 03:05:25;;;;;;;16.58;3.55;;;7.30;99.90;;;;;;5071367;28;20094;-67
2023/12/10 03:07:52;;;;;;;24.05;4.75;;;7.40;99.90;;;;;;5069814;28;20051;-67
2023/12/10 03:10:19;;;;;;;20.38;4.60;;;7.30;99.90;;;;;;5071733;28;20507;-67
2023/12/10 03:12:46;;;;;;;18.65;5.07;;;7.30;99.90;;;;;;5069845;28;20044;-67
2023/12/10 03:15:13;;;;;;;20.45;4.28;;;7.30;99.90;;;;;;5069717;28;20515;-67
2023/12/10 03:17:41;;;;;;;19.15;5.55;;;7.30;99.90;;;;;;5070620;28;20044;-67
2023/12/10 03:20:12;;;;;;;14.70;4.43;;;7.30;99.90;;;;;;5070962;28;20048;-67
2023/12/10 03:22:39;;;;;;;18.27;4.40;;;7.20;99.90;;;;;;5071536;28;20457;-67
2023/12/10 03:25:07;;;;;;;18.27;4.90;;;7.20;99.90;;;;;;5070246;28;20044;-67
2023/12/10 03:27:35;;;;;;;18.80;4.97;;;7.20;99.90;;;;;;5070017;28;20048;-67
2023/12/10 03:30:02;;;;;;;16.95;4.80;;;7.30;99.90;;;;;;5071235;28;20505;-67
2023/12/10 03:32:29;;;;;;;17.15;3.95;;;7.20;99.90;;;;;;5070348;28;20083;-67
2023/12/10 03:34:58;;;;;;;21.02;5.35;;;7.30;99.90;;;;;;5069378;28;20488;-67
2023/12/10 03:37:25;;;;;;;17.20;4.97;;;7.20;99.90;;;;;;5070013;28;20500;-67
2023/12/10 03:39:52;;;;;;;30.50;4.93;;;7.20;99.90;;;;;;5070427;28;20044;-67
2023/12/10 03:42:19;;;;;;;20.48;4.13;;;7.10;99.90;;;;;;5070542;28;20052;-67
2023/12/10 03:44:46;;;;;;;11.40;3.60;;;7.20;99.90;;;;;;5071485;28;20044;-67
2023/12/10 03:47:13;;;;;;;15.60;3.35;;;7.20;99.90;;;;;;5071535;28;20457;-67
2023/12/10 03:49:40;;;;;;;16.65;3.53;;;7.10;99.90;;;;;;5073522;28;20048;-67
2023/12/10 03:52:08;;;;;;;14.45;3.67;;;7.20;99.90;;;;;;5075252;28;20370;-67
2023/12/10 03:54:35;;;;;;;11.48;2.50;;;7.20;99.90;;;;;;5074924;28;20399;-67
2023/12/10 03:57:02;;;;;;;12.35;2.42;;;7.20;99.90;;;;;;5073348;28;20461;-67
2023/12/10 03:59:29;;;;;;;9.45;2.50;;;7.30;99.90;;;;;;5073690;28;20473;-67
2023/12/10 04:01:57;;;;;;;16.13;2.88;;;7.30;99.90;;;;;;5073149;28;20045;-67
2023/12/10 04:04:24;;;;;;;15.05;2.65;;;7.30;99.90;;;;;;5073986;28;20432;-67
2023/12/10 04:06:51;;;;;;;8.95;2.55;;;7.30;99.90;;;;;;5073692;28;20052;-67
2023/12/10 04:09:19;;;;;;;5.68;2.15;;;7.30;99.90;;;;;;5074670;28;20436;-67
2023/12/10 04:11:46;;;;;;;7.78;2.10;;;7.30;99.90;;;;;;5073211;28;20087;-67
2023/12/10 04:14:13;;;;;;;9.60;2.35;;;7.30;99.90;;;;;;5073300;28;20056;-67
2023/12/10 04:16:40;;;;;;;10.95;2.30;;;7.30;99.90;;;;;;5072884;28;20503;-67
2023/12/10 04:19:07;;;;;;;7.57;2.30;;;7.30;99.90;;;;;;5073370;28;20051;-67
2023/12/10 04:21:34;;;;;;;6.65;1.88;;;7.30;99.90;;;;;;5073135;28;20496;-67
2023/12/10 04:24:02;;;;;;;7.60;1.60;;;7.30;99.90;;;;;;5072501;28;20147;-67
2023/12/10 04:26:31;;;;;;;6.78;1.67;;;7.40;99.90;;;;;;5072899;28;20090;-67
2023/12/10 04:28:58;;;;;;;8.68;2.25;;;7.50;99.90;;;;;;5072968;28;20153;-67
2023/12/10 04:31:25;;;;;;;9.60;2.40;;;7.40;99.90;;;;;;5073584;28;20075;-67
2023/12/10 04:33:52;;;;;;;4.43;1.80;;;7.50;99.90;;;;;;5073134;28;20052;-67
2023/12/10 04:36:19;;;;;;;10.10;2.15;;;7.50;99.90;;;;;;5074029;28;20048;-67
2023/12/10 04:38:46;;;;;;;9.80;2.45;;;7.50;99.90;;;;;;5073900;28;20128;-67
2023/12/10 04:41:13;;;;;;;8.50;2.03;;;7.60;99.90;;;;;;5072373;28;20064;-67
2023/12/10 04:43:41;;;;;;;9.63;2.72;;;7.60;99.90;;;;;;5072663;28;20076;-66
2023/12/10 04:46:08;;;;;;;12.02;2.63;;;7.60;99.90;;;;;;5072057;28;20037;-67
2023/12/10 04:48:35;;;;;;;10.98;3.60;;;7.60;99.90;;;;;;5072556;28;20044;-66
2023/12/10 04:51:02;;;;;;;16.92;3.92;;;7.70;99.90;;;;;;5072509;28;20059;-67
2023/12/10 04:53:29;;;;;;;14.52;3.72;;;7.60;99.90;;;;;;5073249;28;20049;-65
2023/12/10 04:55:56;;;;;;;18.30;3.28;;;7.70;99.90;;;;;;5070572;28;20400;-66
2023/12/10 04:58:23;;;;;;;13.25;3.33;;;7.70;99.90;;;;;;5072649;28;20052;-67
2023/12/10 05:00:52;;;;;;;11.95;3.38;;;7.70;99.90;;;;;;5071991;28;20056;-66
2023/12/10 05:03:19;;;;;;;14.93;3.38;;;7.80;99.90;;;;;;5104055;28;20056;-66
2023/12/10 05:05:46;;;;;;;11.57;2.63;;;7.70;99.90;;;;;;5072024;28;20759;-67
2023/12/10 05:08:13;;;;;;;17.67;3.60;;;7.70;99.90;;;;;;5072539;28;20063;-66
2023/12/10 05:10:40;;;;;;;15.55;3.47;;;7.80;99.90;;;;;;5071926;28;20075;-66
2023/12/10 05:13:07;;;;;;;9.32;3.20;;;7.70;99.90;;;;;;5072744;28;20502;-66
2023/12/10 05:15:34;;;;;;;15.40;3.55;;;7.80;99.90;;;;;;5073240;28;20040;-67
2023/12/10 05:18:03;;;;;;;13.88;3.67;;;7.90;99.90;;;;;;5073449;28;20407;-67
2023/12/10 05:20:30;;;;;;;17.13;3.88;;;7.80;99.90;;;;;;5070754;28;20049;-67
2023/12/10 05:22:58;;;;;;;12.65;3.70;;;7.90;99.90;;;;;;5073119;28;20048;-67
2023/12/10 05:25:27;;;;;;;8.70;2.28;;;7.90;99.90;;;;;;5072812;28;20480;-67
2023/12/10 05:27:54;;;;;;;11.43;3.35;;;7.80;99.90;;;;;;5071581;28;20048;-67
2023/12/10 05:30:21;;;;;;;7.65;2.25;;;7.90;99.90;;;;;;5071853;28;20106;-67
2023/12/10 05:32:48;;;;;;;14.77;3.10;;;7.70;99.90;;;;;;5072019;28;20049;-68
2023/12/10 05:35:17;;;;;;;11.05;1.85;;;7.90;99.90;;;;;;5070968;28;20068;-68
2023/12/10 05:37:44;;;;;;;9.90;2.42;;;7.80;99.90;;;;;;5071798;28;20041;-67
2023/12/10 05:40:11;;;;;;;7.75;2.10;;;7.70;99.90;;;;;;5071339;28;20389;-67
2023/12/10 05:42:38;;;;;;;11.50;2.72;;;7.90;99.90;;;;;;5070736;28;20132;-67
2023/12/10 05:45:07;;;;;;;6.85;2.33;;;7.90;99.90;;;;;;5069515;28;20073;-67
2023/12/10 05:47:34;;;;;;;7.07;1.70;;;7.70;99.90;;;;;;5071274;28;20507;-67
2023/12/10 05:50:01;;;;;;;6.60;1.90;;;7.80;99.90;;;;;;5072088;28;20057;-67
2023/12/10 05:52:29;;;;;;;6.75;1.48;;;7.60;99.90;;;;;;5070281;28;20120;-67
2023/12/10 05:54:56;;;;;;;3.42;1.42;;;7.60;99.90;;;;;;5070470;28;20489;-67
2023/12/10 05:57:23;;;;;;;8.27;1.90;;;7.60;99.90;;;;;;5072644;28;20139;-67
2023/12/10 05:59:50;;;;;;;9.30;1.80;;;7.70;99.90;;;;;;5072514;28;20408;-67
2023/12/10 06:02:17;;;;;;;5.93;2.40;;;7.70;99.90;;;;;;5071685;28;20048;-68
2023/12/10 06:04:44;;;;;;;12.32;2.00;;;7.70;99.90;;;;;;5071302;28;20485;-68
2023/12/10 06:07:11;;;;;;;7.15;2.05;;;7.70;99.90;;;;;;5070760;28;20048;-67
2023/12/10 06:09:39;;;;;;;11.65;2.35;;;7.60;99.90;;;;;;5070776;28;20495;-67
2023/12/10 06:12:07;;;;;;;9.63;2.50;;;7.80;99.90;;;;;;5071896;28;20041;-67
2023/12/10 06:14:34;;;;;;;11.20;2.22;;;7.70;99.90;;;;;;5072130;28;20052;-67
2023/12/10 06:17:01;;;;;;;12.43;2.60;;;7.70;99.90;;;;;;5071717;28;20041;-67
2023/12/10 06:19:28;;;;;;;11.18;2.83;;;7.70;99.90;;;;;;5071023;28;20056;-67
2023/12/10 06:21:55;;;;;;;10.73;2.80;;;7.80;99.90;;;;;;5071960;28;20060;-67
2023/12/10 06:24:22;;;;;;;8.18;2.65;;;7.80;99.90;;;;;;5069717;28;20044;-67
2023/12/10 06:26:51;;;;;;;10.48;2.40;;;7.70;99.90;;;;;;5070405;28;20500;-67
2023/12/10 06:29:18;;;;;;;17.77;3.78;;;7.80;99.90;;;;;;5072252;28;20048;-67
2023/12/10 06:31:45;;;;;;;17.15;3.92;;;7.70;99.90;;;;;;5070416;28;20393;-67
2023/12/10 06:34:12;;;;;;;15.15;3.58;;;7.80;99.90;;;;;;5071366;28;20048;-68
2023/12/10 06:36:39;;;;;;;21.23;3.47;;;7.70;99.90;;;;;;5071521;28;20049;-67
2023/12/10 06:39:06;;;;;;;14.43;3.40;;;7.70;99.90;;;;;;5071362;28;20059;-68
2023/12/10 06:41:33;;;;;;;12.60;3.53;;;7.80;99.90;;;;;;5063823;28;20535;-68
2023/12/10 06:44:02;;;;;;;12.32;4.03;;;7.80;99.90;;;;;;5071146;28;20055;-67
2023/12/10 06:46:29;;;;;;;10.40;3.42;;;7.90;99.90;;;;;;5066921;28;20055;-67
2023/12/10 06:48:56;;;;;;;11.45;3.60;;;7.90;99.90;;;;;;5068944;28;20044;-66
2023/12/10 06:51:23;;;;;;;18.40;4.93;;;7.90;99.90;;;;;;5070615;28;20385;-66
2023/12/10 06:53:50;;;;;;;14.35;3.63;;;7.90;99.90;;;;;;5068161;28;20070;-67
2023/12/10 06:56:17;;;;;;;14.30;3.65;;;7.80;99.90;;;;;;5071477;28;20040;-67
2023/12/10 06:58:44;;;;;;;20.80;4.22;;;7.80;99.90;;;;;;5067722;28;20044;-68
2023/12/10 07:01:14;;;;;;;13.90;4.07;;;7.70;99.90;;;;;;5069249;28;20048;-68
2023/12/10 07:03:42;;;;;;;16.17;4.03;;;7.80;99.90;;;;;;5071078;28;20044;-67
2023/12/10 07:06:09;;;;;;;19.45;3.92;;;7.80;99.90;;;;;;5070244;28;20041;-67
2023/12/10 07:08:36;;;;;;;12.15;3.50;;;7.70;99.90;;;;;;5070795;28;20071;-68
2023/12/10 07:11:05;;;;;;;13.95;3.42;;;7.70;99.90;;;;;;5099905;28;20041;-68
2023/12/10 07:13:32;;;;;;;17.60;3.03;;;7.70;99.90;;;;;;5097814;28;20051;-67
2023/12/10 07:15:59;;;;;;;8.90;2.25;;;7.90;99.90;;;;;;5099523;28;20041;-68
2023/12/10 07:18:27;;;;;;;14.02;2.60;;;7.90;99.90;;;;;;5069599;28;20059;-68
2023/12/10 07:20:56;;;;;;;11.55;3.03;;;7.90;99.90;;;;;;5098963;28;20055;-67
2023/12/10 07:23:26;;;;;;;9.13;2.88;;;8.00;99.90;;;;;;5069309;28;20217;-68
2023/12/10 07:25:53;;;;;;;17.83;2.65;;;7.90;99.90;;;;;;5073795;28;20043;-68
2023/12/10 07:28:20;;;;;;;13.95;2.60;;;8.00;99.90;;;;;;5072864;28;20515;-68
2023/12/10 07:30:47;;;;;;;17.25;3.47;;;8.00;99.90;;;;;;5073391;28;20051;-68
2023/12/10 07:33:14;;;;;;;13.30;2.80;;;8.00;99.90;;;;;;5073853;28;20056;-68
2023/12/10 07:35:43;;;;;;;10.10;2.60;;;8.00;99.90;;;;;;5072520;28;20047;-68
2023/12/10 07:38:10;;;;;;;8.75;3.10;;;7.90;99.90;;;;;;5073428;28;20382;-68
2023/12/10 07:40:37;;;;;;;11.10;2.75;;;7.90;99.90;;;;;;5073205;28;20051;-68
2023/12/10 07:43:04;;;;;;;8.60;2.22;;;8.00;99.90;;;;;;5070888;28;20048;-68
2023/12/10 07:45:31;;;;;;;9.40;2.08;;;8.00;99.90;;;;;;5073723;28;20664;-68
2023/12/10 07:47:58;;;;;;;9.85;2.58;;;8.00;99.90;;;;;;5072536;28;20044;-68
2023/12/10 07:50:25;;;;;;;21.38;2.75;;;8.10;99.90;;;;;;5102382;28;20412;-67
2023/12/10 07:52:53;;;;;;;16.23;2.78;;;8.00;99.90;;;;;;5073131;28;20049;-67
2023/12/10 07:55:20;;;;;;;7.18;2.33;;;8.00;99.90;;;;;;5071872;28;20135;-68
2023/12/10 07:57:48;;;;;;;10.85;2.58;;;8.00;99.90;;;;;;5074015;28;20044;-68
2023/12/10 08:00:15;;;;;;;13.57;2.80;;;8.10;99.90;;;;;;5072977;28;20647;-68
2023/12/10 08:02:43;;;;;;;14.32;4.07;;;8.00;99.90;;;;;;5073514;28;20434;-68
2023/12/10 08:05:10;;;;;;;11.93;2.70;;;8.10;99.90;;;;;;5072840;28;20040;-67
2023/12/10 08:07:37;;;;;;;12.48;3.03;;;8.10;99.90;;;;;;5073684;28;20067;-67
2023/12/10 08:10:07;;;;;;;13.82;3.88;;;8.00;99.90;;;;;;5070301;28;20052;-67
2023/12/10 08:12:34;;;;;;;7.20;2.78;;;8.20;99.90;;;;;;5072332;28;20457;-67
2023/12/10 08:15:01;;;;;;;8.35;2.35;;;8.20;99.90;;;;;;5072416;28;20144;-68
2023/12/10 08:17:28;;;;;;;6.72;2.20;;;8.20;99.90;;;;;;5072385;28;20421;-68
2023/12/10 08:19:55;;;;;;;10.38;2.63;;;8.10;99.90;;;;;;5073045;28;20049;-67
2023/12/10 08:22:22;;;;;;;10.98;2.40;;;8.20;99.90;;;;;;5072528;28;20380;-68
2023/12/10 08:24:49;;;;;;;8.20;2.38;;;8.10;99.90;;;;;;5072418;28;20470;-68
2023/12/10 08:27:17;;;;;;;6.10;2.33;;;8.10;99.90;;;;;;5072261;28;20045;-69
2023/12/10 08:29:44;;;;;;;12.15;2.58;;;8.20;99.90;;;;;;5072476;28;20404;-68
2023/12/10 08:32:11;;;;;;;13.70;2.53;;;8.20;99.90;;;;;;5065728;28;20052;-67
2023/12/10 08:34:39;;;;;;;12.55;3.22;;;8.10;99.90;;;;;;5064130;28;20109;-68
2023/12/10 08:37:07;;;;;;;14.80;4.07;;;8.20;99.90;;;;;;5065877;28;20044;-67
2023/12/10 08:39:34;;;;;;;17.38;3.45;;;8.00;99.90;;;;;;5071924;28;20057;-67
2023/12/10 08:42:01;;;;;;;11.10;2.95;;;8.00;99.90;;;;;;5071650;28;20057;-67
2023/12/10 08:44:29;;;;;;;12.23;3.22;;;8.10;99.90;;;;;;5070897;28;20123;-68
2023/12/10 08:46:56;;;;;;;12.13;2.63;;;8.00;99.90;;;;;;5071474;28;20056;-68
2023/12/10 08:49:23;;;;;;;8.30;2.33;;;8.10;99.90;;;;;;5071691;28;20064;-68
2023/12/10 08:51:51;;;;;;;12.15;3.20;;;8.20;99.90;;;;;;5071176;28;20048;-68
2023/12/10 08:54:18;;;;;;;12.73;3.03;;;8.20;99.90;;;;;;5071581;28;20072;-68
2023/12/10 08:56:45;;;;;;;15.23;3.85;;;8.20;99.90;;;;;;5072883;28;20059;-67
2023/12/10 08:59:12;;;;;;;14.55;4.18;;;8.10;99.90;;;;;;5070973;28;20055;-67
2023/12/10 09:01:40;;;;;;;16.83;4.03;;;8.20;99.90;;;;;;5072887;28;20104;-68
2023/12/10 09:04:07;;;;;;;16.95;3.85;;;8.20;99.90;;;;;;5072633;28;20059;-67
2023/12/10 09:06:34;;;;;;;13.57;3.97;;;8.10;99.90;;;;;;5070963;28;20527;-67
2023/12/10 09:09:02;;;;;;;24.15;4.97;;;8.20;99.90;;;;;;5071514;28;20062;-65
2023/12/10 09:11:30;;;;;;;25.05;3.80;;;8.20;99.90;;;;;;5071012;28;20056;-67
2023/12/10 09:13:57;;;;;;;13.82;3.80;;;8.20;99.90;;;;;;5070095;28;20044;-67
2023/12/10 09:16:25;;;;;;;22.33;5.18;;;8.20;99.90;;;;;;5070660;28;20519;-68
2023/12/10 09:18:54;;;;;;;17.58;4.43;;;8.30;99.90;;;;;;5072265;28;20048;-67
2023/12/10 09:21:21;;;;;;;17.35;3.92;;;8.20;99.90;;;;;;5071765;28;20481;-68
2023/12/10 09:23:48;;;;;;;20.75;4.47;;;8.20;99.90;;;;;;5071260;28;20057;-68
2023/12/10 09:26:15;;;;;;;17.92;3.47;;;8.10;99.90;;;;;;5070141;28;20180;-67
2023/12/10 09:28:42;;;;;;;16.00;3.80;;;8.20;99.90;;;;;;5070958;28;20060;-68
2023/12/10 09:31:09;;;;;;;17.10;3.58;;;8.20;99.90;;;;;;5070381;28;20048;-68
2023/12/10 09:33:36;;;;;;;16.55;3.53;;;8.20;99.90;;;;;;5069093;28;20063;-68
2023/12/10 09:36:05;;;;;;;18.52;4.32;;;8.10;99.90;;;;;;5067635;28;20139;-68
2023/12/10 09:38:32;;;;;;;17.17;3.75;;;8.20;99.90;;;;;;5070859;28;20044;-68
2023/12/10 09:40:59;;;;;;;14.82;3.13;;;8.20;99.90;;;;;;5069949;28;20128;-67
2023/12/10 09:43:26;;;;;;;11.07;3.67;;;8.20;99.90;;;;;;5069153;28;20066;-68
2023/12/10 09:45:53;;;;;;;13.35;3.33;;;8.10;99.90;;;;;;5069931;28;20048;-68
2023/12/10 09:48:21;;;;;;;14.77;3.20;;;8.20;99.90;;;;;;5070294;28;20048;-67
2023/12/10 09:50:48;;;;;;;14.95;3.33;;;8.20;99.90;;;;;;5070502;28;20510;-66
2023/12/10 09:53:16;;;;;;;12.57;3.60;;;8.30;99.90;;;;;;5070714;28;20052;-67
2023/12/10 09:55:43;;;;;;;10.50;4.28;;;8.30;99.90;;;;;;5071506;28;20048;-68
2023/12/10 09:58:10;;;;;;;15.30;3.05;;;8.30;99.90;;;;;;5070930;28;20381;-68
2023/12/10 10:00:37;;;;;;;13.68;3.50;;;8.30;99.90;;;;;;5070827;28;20122;-68
2023/12/10 10:03:05;;;;;;;16.98;4.75;;;8.30;99.90;;;;;;5069984;28;20070;-68
2023/12/10 10:05:34;;;;;;;15.30;4.13;;;8.30;99.90;;;;;;5071775;28;20051;-67
2023/12/10 10:08:01;;;;;;;14.13;3.78;;;8.30;99.90;;;;;;5072118;28;20051;-68
2023/12/10 10:10:31;;;;;;;18.67;4.18;;;8.30;99.90;;;;;;5070772;28;20504;-67
2023/12/10 10:12:59;;;;;;;13.45;3.30;;;8.40;99.90;;;;;;5071767;28;20055;-67
2023/12/10 10:15:28;;;;;;;16.15;3.95;;;8.40;99.90;;;;;;5069487;28;20048;-67
2023/12/10 10:17:55;;;;;;;20.33;4.43;;;8.30;99.90;;;;;;5070533;28;20110;-67
2023/12/10 10:20:24;;;;;;;15.93;3.97;;;8.30;99.90;;;;;;5070469;28;20052;-68
2023/12/10 10:22:51;;;;;;;16.05;3.85;;;8.30;99.90;;;;;;5069715;28;20067;-68
2023/12/10 10:25:19;;;;;;;14.20;3.30;;;8.30;99.90;;;;;;5071742;28;20058;-68
2023/12/10 10:27:49;;;;;;;22.60;4.80;;;8.20;99.90;;;;;;5070005;28;20047;-68
2023/12/10 10:30:16;;;;;;;15.57;4.18;;;8.20;99.90;;;;;;5069848;28;20459;-69
2023/12/10 10:32:44;;;;;;;18.92;4.57;;;8.20;99.90;;;;;;5067628;28;20496;-68
2023/12/10 10:35:12;;;;;;;19.70;4.47;;;8.20;99.90;;;;;;5070310;28;20052;-68
2023/12/10 10:37:39;;;;;;;22.90;4.85;;;8.20;99.90;;;;;;5067311;28;20040;-66
2023/12/10 10:40:07;;;;;;;16.25;4.75;;;8.10;99.90;;;;;;5069802;28;20041;-68
2023/12/10 10:42:34;;;;;;;19.13;5.00;;;8.20;99.90;;;;;;5068302;28;20075;-67
2023/12/10 10:45:03;;;;;;;26.67;6.32;;;8.20;99.90;;;;;;5069445;28;20044;-67
2023/12/10 10:47:32;;;;;;;23.65;5.88;;;8.20;99.90;;;;;;5062882;28;20044;-68
2023/12/10 10:50:01;;;;;;;23.80;5.32;;;8.30;99.90;;;;;;5068302;28;20525;-68
2023/12/10 10:52:30;;;;;;;16.58;5.22;;;8.50;99.90;;;;;;5069346;28;20131;-68
2023/12/10 10:54:58;;;;;;;19.88;6.20;;;8.60;99.90;;;;;;5069052;28;20094;-67
2023/12/10 10:57:29;;;;;;;25.52;5.47;;;8.70;99.90;;;;;;5069933;28;20697;-69
2023/12/10 10:59:57;;;;;;;26.40;5.40;;;8.60;99.90;;;;;;5073988;28;20451;-67
2023/12/10 11:02:25;;;;;;;22.90;6.25;;;8.50;99.90;;;;;;5073172;28;20052;-68
2023/12/10 11:04:52;;;;;;;20.85;5.63;;;8.50;99.90;;;;;;5073053;28;20488;-68
2023/12/10 11:07:21;;;;;;;22.25;5.85;;;8.50;99.90;;;;;;5073627;28;20044;-68
2023/12/10 11:09:57;;;;;;;19.17;5.32;;;8.50;99.90;;;;;;5071701;28;20296;-67
2023/12/10 11:12:44;;;;;;;24.73;5.70;;;8.40;99.90;;;;;;5072313;28;20055;-68
2023/12/10 11:15:23;;;;;;;25.42;6.18;;;8.50;99.90;;;;;;5073518;28;20053;-68
2023/12/10 11:17:52;;;;;;;24.33;5.40;;;8.50;99.90;;;;;;5073486;28;20507;-68
2023/12/10 11:20:37;;;;;;;27.20;6.10;;;8.50;99.90;;;;;;5072864;28;20048;-68
2023/12/10 11:23:05;;;;;;;24.85;6.85;;;8.50;99.90;;;;;;5072455;28;20382;-68
2023/12/10 11:25:32;;;;;;;23.88;6.85;;;8.50;99.90;;;;;;5072465;28;20045;-68
2023/12/10 11:28:09;;;;;;;28.98;5.80;;;8.50;99.90;;;;;;5072872;28;20055;-68
2023/12/10 11:30:36;;;;;;;24.73;6.18;;;8.60;99.90;;;;;;5073386;28;20097;-68
2023/12/10 11:33:05;;;;;;;25.83;5.35;;;8.70;99.90;;;;;;5072798;28;20230;-68
2023/12/10 11:35:32;;;;;;;24.60;5.00;;;8.70;99.90;;;;;;5072997;28;20044;-68
2023/12/10 11:37:59;;;;;;;30.88;5.88;;;8.70;99.90;;;;;;5072912;28;20045;-73
2023/12/10 11:40:26;;;;;;;26.27;6.32;;;8.70;99.90;;;;;;5072052;28;20052;-68
2023/12/10 11:42:53;;;;;;;23.23;6.18;;;8.70;99.90;;;;;;5072190;28;20056;-68
2023/12/10 11:45:20;;;;;;;26.45;6.57;;;8.70;99.90;;;;;;5072619;28;20052;-69
2023/12/10 11:47:48;;;;;;;25.58;5.95;;;8.70;99.90;;;;;;5069144;28;20044;-68
2023/12/10 11:50:17;;;;;;;26.30;6.03;;;8.70;99.90;;;;;;5072393;28;20056;-68
2023/12/10 11:52:44;;;;;;;19.67;5.85;;;8.70;99.90;;;;;;5073913;28;20055;-69
2023/12/10 11:55:11;;;;;;;19.90;5.70;;;8.60;99.90;;;;;;5072308;28;20060;-70
2023/12/10 11:57:44;;;;;;;27.55;5.55;;;8.60;99.90;;;;;;5073662;28;20468;-69
2023/12/10 12:00:13;;;;;;;28.90;6.25;;;8.60;99.90;;;;;;5072254;28;20048;-70
2023/12/10 12:02:42;;;;;;;33.35;6.75;;;8.60;99.90;;;;;;5071974;28;20435;-69
2023/12/10 12:05:10;;;;;;;26.40;7.25;;;8.60;99.90;;;;;;5072392;28;20052;-70
2023/12/10 12:07:38;;;;;;;27.98;6.07;;;8.50;99.90;;;;;;5072631;28;20044;-71
2023/12/10 12:10:39;;;;;;;26.35;7.28;;;8.50;99.90;;;;;;5070842;28;20052;-73
2023/12/10 12:13:07;;;;;;;26.73;6.75;;;8.50;99.90;;;;;;5072337;28;20074;-70
2023/12/10 12:15:34;;;;;;;26.33;5.93;;;8.50;99.90;;;;;;5103675;28;20048;-69
2023/12/10 12:18:03;;;;;;;22.10;5.70;;;8.40;99.90;;;;;;5072154;28;20052;-69
2023/12/10 12:20:30;;;;;;;27.85;6.45;;;8.50;99.90;;;;;;5071361;28;20050;-69
2023/12/10 12:22:59;;;;;;;28.63;7.43;;;8.40;99.90;;;;;;5070401;28;20044;-70
2023/12/10 12:25:26;;;;;;;27.92;6.70;;;8.40;99.90;;;;;;5071796;28;20080;-69
2023/12/10 12:27:53;;;;;;;32.30;6.53;;;8.40;99.90;;;;;;5071548;28;20048;-69
2023/12/10 12:30:20;;;;;;;26.60;6.13;;;8.40;99.90;;;;;;5070393;28;20052;-69
2023/12/10 12:32:47;;;;;;;24.73;6.70;;;8.40;99.90;;;;;;5071102;28;20060;-68
2023/12/10 12:35:14;;;;;;;24.83;5.57;;;8.40;99.90;;;;;;5071276;28;20044;-70
2023/12/10 12:37:41;;;;;;;29.40;6.70;;;8.40;99.90;;;;;;5069558;28;20051;-68
2023/12/10 12:40:11;;;;;;;20.30;5.60;;;8.50;99.90;;;;;;5070718;28;20048;-69
2023/12/10 12:42:38;;;;;;;29.70;5.57;;;8.50;99.90;;;;;;5068631;28;20047;-68
2023/12/10 12:45:06;;;;;;;24.88;6.03;;;8.50;99.90;;;;;;5069863;28;20130;-68
2023/12/10 12:47:33;;;;;;;30.10;6.57;;;8.50;99.90;;;;;;5068176;28;20079;-69
2023/12/10 12:50:00;;;;;;;23.98;5.80;;;8.60;99.90;;;;;;5068167;28;20052;-69